Time;durP1;ratioP1;P1;durP2;ratioP2;P2;SDS_P1;SDS_P2;PMS_P1;PMS_P2;Temp;Humidity;BMP_temperature;BMP_pressure;BME280_temperature;BME280_humidity;BME280_pressure;Samples;Min_cycle;Max_cycle;Signal;HPM_P1;HPM_P2
2021/05/20 00:01:47;;;;;;;1.25;0.75;;;9.60;69.00;;;;;;5093319;28;20081;-77
2021/05/20 00:04:13;;;;;;;1.55;0.68;;;9.50;69.30;;;;;;5093596;28;20063;-76
2021/05/20 00:06:38;;;;;;;3.92;0.50;;;9.50;70.40;;;;;;5093568;28;20020;-76
2021/05/20 00:09:05;;;;;;;1.45;0.47;;;9.40;69.50;;;;;;5093529;28;20065;-76
2021/05/20 00:11:31;;;;;;;1.20;0.43;;;9.30;70.00;;;;;;5093393;28;20024;-76
2021/05/20 00:13:57;;;;;;;1.92;0.30;;;9.30;69.90;;;;;;5093280;28;20043;-76
2021/05/20 00:16:23;;;;;;;1.92;0.50;;;9.20;69.90;;;;;;5093287;28;20088;-76
2021/05/20 00:18:48;;;;;;;2.78;0.50;;;9.30;70.10;;;;;;5093321;28;20028;-76
2021/05/20 00:21:14;;;;;;;1.65;0.30;;;9.10;70.40;;;;;;5093309;28;20507;-76
2021/05/20 00:23:39;;;;;;;3.55;0.40;;;9.10;70.50;;;;;;5093221;28;20146;-76
2021/05/20 00:26:05;;;;;;;1.30;0.30;;;9.20;70.60;;;;;;5093171;28;20020;-76
2021/05/20 00:28:30;;;;;;;0.63;0.40;;;9.20;71.40;;;;;;5093099;28;20028;-76
2021/05/20 00:30:56;;;;;;;1.30;0.20;;;9.20;70.60;;;;;;5093202;28;20077;-76
2021/05/20 00:33:22;;;;;;;0.73;0.28;;;9.30;70.10;;;;;;5093157;28;20459;-76
2021/05/20 00:35:48;;;;;;;0.80;0.50;;;9.30;69.80;;;;;;5097524;28;20027;-76
2021/05/20 00:38:13;;;;;;;4.28;0.50;;;9.30;69.90;;;;;;5106588;28;20077;-77
2021/05/20 00:40:39;;;;;;;0.30;0.30;;;9.30;69.70;;;;;;5096637;28;20024;-76
2021/05/20 00:43:05;;;;;;;2.22;0.70;;;9.30;69.60;;;;;;5094087;28;20043;-76
2021/05/20 00:45:30;;;;;;;1.20;0.35;;;9.40;69.60;;;;;;5092916;28;20048;-76
2021/05/20 00:47:56;;;;;;;1.77;0.40;;;9.40;69.70;;;;;;5093076;28;20099;-75
2021/05/20 00:50:22;;;;;;;1.45;0.50;;;9.50;69.90;;;;;;5093352;28;20498;-87
2021/05/20 00:52:47;;;;;;;0.70;0.20;;;9.40;70.00;;;;;;5093105;28;20036;-76
2021/05/20 00:55:16;;;;;;;1.05;0.50;;;9.40;70.30;;;;;;5092243;28;20024;-77
2021/05/20 00:57:42;;;;;;;2.63;0.68;;;9.40;70.40;;;;;;5095113;28;20051;-76
2021/05/20 01:00:10;;;;;;;1.25;0.45;;;9.40;70.60;;;;;;5100178;28;20095;-76
2021/05/20 01:02:37;;;;;;;1.27;0.40;;;9.30;70.80;;;;;;5091744;28;20020;-76
2021/05/20 01:05:12;;;;;;;1.67;0.57;;;9.30;71.00;;;;;;5093470;28;20031;-76
2021/05/20 01:07:38;;;;;;;0.80;0.28;;;9.20;71.10;;;;;;5093427;28;20513;-76
2021/05/20 01:10:05;;;;;;;1.95;0.43;;;9.10;71.50;;;;;;5093569;28;20059;-76
2021/05/20 01:12:31;;;;;;;0.45;0.38;;;9.20;71.80;;;;;;5100425;28;20031;-77
2021/05/20 01:14:56;;;;;;;3.28;0.43;;;9.20;72.10;;;;;;5103539;28;20024;-76
2021/05/20 01:17:22;;;;;;;0.82;0.47;;;9.20;72.20;;;;;;5093388;28;20024;-76
2021/05/20 01:19:47;;;;;;;1.05;0.60;;;9.20;72.30;;;;;;5093063;28;20031;-76
2021/05/20 01:22:14;;;;;;;0.65;0.57;;;9.20;72.30;;;;;;5092831;28;20025;-76
2021/05/20 01:24:40;;;;;;;1.15;0.43;;;9.20;73.20;;;;;;5093060;28;20031;-76
2021/05/20 01:27:07;;;;;;;0.77;0.40;;;9.20;72.50;;;;;;5093382;28;20050;-77
2021/05/20 01:29:42;;;;;;;0.82;0.55;;;9.10;72.40;;;;;;5098697;28;20103;-76
2021/05/20 01:32:08;;;;;;;0.40;0.40;;;9.20;72.50;;;;;;5092948;28;20393;-75
2021/05/20 01:34:35;;;;;;;2.10;0.40;;;9.20;72.70;;;;;;5092954;28;20303;-75
2021/05/20 01:37:02;;;;;;;0.38;0.10;;;9.20;73.00;;;;;;5094507;28;20034;-75
2021/05/20 01:39:28;;;;;;;0.50;0.35;;;9.20;73.20;;;;;;5099571;28;20028;-76
2021/05/20 01:41:53;;;;;;;0.90;0.30;;;9.20;73.30;;;;;;5103195;28;20020;-88
2021/05/20 01:44:20;;;;;;;1.80;0.22;;;9.20;73.30;;;;;;5099206;28;20119;-88
2021/05/20 01:46:46;;;;;;;2.00;0.43;;;9.30;73.30;;;;;;5097451;28;20012;-88
2021/05/20 01:49:12;;;;;;;1.27;0.32;;;9.20;73.40;;;;;;5097249;28;20024;-88
2021/05/20 01:51:38;;;;;;;0.43;0.30;;;9.20;73.50;;;;;;5097454;28;20026;-87
2021/05/20 01:54:04;;;;;;;2.17;0.32;;;9.30;73.40;;;;;;5097420;28;20032;-88
2021/05/20 01:56:34;;;;;;;0.65;0.38;;;9.30;72.70;;;;;;5096228;28;20024;-88
2021/05/20 01:59:00;;;;;;;2.47;0.50;;;9.10;72.40;;;;;;5097454;28;20059;-88
2021/05/20 02:01:26;;;;;;;2.85;0.40;;;9.10;72.90;;;;;;5097074;28;20073;-88
2021/05/20 02:03:52;;;;;;;0.75;0.38;;;9.00;73.50;;;;;;5097050;28;20035;-85
2021/05/20 02:06:17;;;;;;;2.63;0.70;;;8.90;74.70;;;;;;5096792;28;20023;-80
2021/05/20 02:08:43;;;;;;;0.57;0.40;;;8.80;75.60;;;;;;5096444;28;20028;-83
2021/05/20 02:11:09;;;;;;;0.60;0.38;;;8.70;76.50;;;;;;5096945;28;20055;-87
2021/05/20 02:13:35;;;;;;;0.85;0.40;;;8.70;76.20;;;;;;5096774;28;20036;-86
2021/05/20 02:16:01;;;;;;;1.65;0.35;;;8.70;76.20;;;;;;5096855;28;20024;-86
2021/05/20 02:18:27;;;;;;;0.93;0.45;;;8.70;76.70;;;;;;5096840;28;20047;-87
2021/05/20 02:20:53;;;;;;;0.40;0.35;;;8.60;76.50;;;;;;5096516;28;20220;-87
2021/05/20 02:23:19;;;;;;;1.52;0.50;;;8.60;76.60;;;;;;5096782;28;20070;-86
2021/05/20 02:25:45;;;;;;;0.57;0.40;;;8.60;76.90;;;;;;5096632;28;20055;-86
2021/05/20 02:28:10;;;;;;;0.52;0.40;;;8.70;76.20;;;;;;5096768;28;20024;-88
2021/05/20 02:30:36;;;;;;;1.98;0.60;;;8.80;75.70;;;;;;5095292;28;20020;-85
2021/05/20 02:33:02;;;;;;;0.52;0.47;;;8.80;75.40;;;;;;5096419;28;20085;-85
2021/05/20 02:35:27;;;;;;;1.17;0.60;;;8.80;74.90;;;;;;5096070;28;20032;-86
2021/05/20 02:37:54;;;;;;;0.65;0.30;;;8.80;74.30;;;;;;5096238;28;20016;-85
2021/05/20 02:40:20;;;;;;;0.40;0.20;;;8.80;74.30;;;;;;5096428;28;20035;-86
2021/05/20 02:42:46;;;;;;;1.10;0.30;;;8.90;74.30;;;;;;5096334;28;20028;-87
2021/05/20 02:45:14;;;;;;;0.52;0.25;;;9.00;74.00;;;;;;5095945;28;20127;-88
2021/05/20 02:47:44;;;;;;;1.25;0.38;;;8.90;73.60;;;;;;5095683;28;20116;-87
2021/05/20 02:50:10;;;;;;;1.08;0.32;;;8.90;73.60;;;;;;5094891;28;20024;-88
2021/05/20 02:52:36;;;;;;;0.80;0.47;;;9.00;73.70;;;;;;5095634;28;20476;-87
2021/05/20 02:55:03;;;;;;;0.22;0.22;;;9.10;74.10;;;;;;5095832;28;20036;-86
2021/05/20 02:57:32;;;;;;;1.48;0.38;;;9.20;74.40;;;;;;5096029;28;20531;-86
2021/05/20 02:59:58;;;;;;;0.85;0.55;;;9.20;74.60;;;;;;5095584;28;20020;-89
2021/05/20 03:02:23;;;;;;;1.27;0.30;;;9.20;74.90;;;;;;5094684;28;20166;-88
2021/05/20 03:04:51;;;;;;;1.60;0.63;;;9.30;75.20;;;;;;5095563;28;20024;-83
2021/05/20 03:07:17;;;;;;;0.70;0.43;;;9.30;75.60;;;;;;5095466;28;20101;-89
2021/05/20 03:09:43;;;;;;;1.35;0.60;;;9.30;75.90;;;;;;5095381;28;20032;-90
2021/05/20 03:12:10;;;;;;;0.38;0.38;;;9.30;76.60;;;;;;5095896;28;20016;-88
2021/05/20 03:14:35;;;;;;;0.47;0.40;;;9.30;77.10;;;;;;5095408;28;20032;-88
2021/05/20 03:17:09;;;;;;;1.38;0.10;;;9.20;76.90;;;;;;5095797;28;20107;-91
2021/05/20 03:19:35;;;;;;;0.80;0.30;;;9.10;74.50;;;;;;5098466;28;20032;-89
2021/05/20 03:22:00;;;;;;;0.82;0.47;;;9.00;74.40;;;;;;5111948;28;20102;-82
2021/05/20 03:24:26;;;;;;;0.75;0.30;;;8.90;76.90;;;;;;5113566;28;20024;-85
2021/05/20 03:26:51;;;;;;;1.10;0.50;;;8.90;77.20;;;;;;5109632;28;20085;-88
2021/05/20 03:29:17;;;;;;;0.88;0.30;;;8.80;77.00;;;;;;5096204;28;20020;-90
2021/05/20 03:31:42;;;;;;;1.20;0.30;;;8.80;77.40;;;;;;5095493;28;20504;-91
2021/05/20 03:34:08;;;;;;;0.57;0.30;;;8.80;76.10;;;;;;5095641;28;20060;-89
2021/05/20 03:36:33;;;;;;;0.65;0.28;;;8.90;74.80;;;;;;5095401;28;20027;-90
2021/05/20 03:38:59;;;;;;;0.80;0.20;;;8.90;74.80;;;;;;5095558;28;20035;-90
2021/05/20 03:41:25;;;;;;;0.63;0.17;;;9.00;74.80;;;;;;5095214;28;20124;-89
2021/05/20 03:43:50;;;;;;;0.30;0.30;;;9.00;73.80;;;;;;5094939;28;20024;-90
2021/05/20 03:46:16;;;;;;;0.52;0.40;;;8.90;73.70;;;;;;5095274;28;20024;-86
2021/05/20 03:48:41;;;;;;;0.20;0.20;;;9.00;73.00;;;;;;5095307;28;20030;-77
2021/05/20 03:51:07;;;;;;;0.35;0.20;;;9.00;73.30;;;;;;5095275;28;20469;-92
2021/05/20 03:53:36;;;;;;;0.25;0.20;;;8.80;74.20;;;;;;5105339;28;20024;-91
2021/05/20 03:56:02;;;;;;;0.40;0.40;;;8.80;74.20;;;;;;5095327;28;20032;-87
2021/05/20 03:58:28;;;;;;;0.68;0.25;;;8.70;74.40;;;;;;5095937;28;20024;-85
2021/05/20 04:00:54;;;;;;;0.77;0.20;;;8.70;74.40;;;;;;5099328;28;20028;-87
2021/05/20 04:03:26;;;;;;;2.15;0.82;;;8.60;75.00;;;;;;5094785;28;20107;-86
2021/05/20 04:05:54;;;;;;;0.47;0.30;;;8.70;75.10;;;;;;5095036;28;20020;-89
2021/05/20 04:08:20;;;;;;;1.75;0.50;;;8.70;75.30;;;;;;5095200;28;20028;-88
2021/05/20 04:10:46;;;;;;;1.27;0.50;;;8.70;75.70;;;;;;5094692;28;20028;-86
2021/05/20 04:13:12;;;;;;;0.30;0.28;;;8.70;76.00;;;;;;5094584;28;20040;-88
2021/05/20 04:15:38;;;;;;;0.50;0.20;;;8.70;76.60;;;;;;5094862;28;20024;-88
2021/05/20 04:18:04;;;;;;;0.20;0.20;;;8.50;77.10;;;;;;5097401;28;20030;-83
2021/05/20 04:20:29;;;;;;;0.35;0.28;;;8.40;78.10;;;;;;5112035;28;20068;-82
2021/05/20 04:22:55;;;;;;;1.60;0.43;;;8.50;78.00;;;;;;5113015;28;20023;-79
2021/05/20 04:25:20;;;;;;;0.50;0.30;;;8.40;79.00;;;;;;5110755;28;20426;-87
2021/05/20 04:27:46;;;;;;;0.52;0.38;;;8.50;79.00;;;;;;5096704;28;20028;-90
2021/05/20 04:30:12;;;;;;;0.45;0.30;;;8.50;79.30;;;;;;5095437;28;20027;-90
2021/05/20 04:32:38;;;;;;;0.88;0.57;;;8.60;79.20;;;;;;5095010;28;20038;-89
2021/05/20 04:35:04;;;;;;;0.65;0.20;;;8.60;78.70;;;;;;5095702;28;20103;-92
2021/05/20 04:37:29;;;;;;;0.20;0.20;;;8.70;78.40;;;;;;5096449;28;20052;-92
2021/05/20 04:39:55;;;;;;;0.40;0.28;;;8.80;77.70;;;;;;5113161;28;20038;-81
2021/05/20 04:42:20;;;;;;;0.52;0.20;;;8.90;77.40;;;;;;5115942;28;20038;-81
2021/05/20 04:44:46;;;;;;;0.13;0.13;;;9.00;76.40;;;;;;5115534;28;20044;-87
2021/05/20 04:47:11;;;;;;;0.20;0.20;;;9.00;76.00;;;;;;5103621;28;20035;-83
2021/05/20 04:49:37;;;;;;;1.45;0.20;;;9.00;75.60;;;;;;5096787;28;20028;-90
2021/05/20 04:52:02;;;;;;;0.22;0.22;;;9.00;75.40;;;;;;5096784;28;20020;-90
2021/05/20 04:54:28;;;;;;;0.15;0.15;;;9.00;75.60;;;;;;5095449;28;20032;-89
2021/05/20 04:56:54;;;;;;;0.95;0.30;;;9.00;75.50;;;;;;5094051;28;20031;-90
2021/05/20 04:59:19;;;;;;;0.75;0.20;;;9.10;75.30;;;;;;5094877;28;20103;-89
2021/05/20 05:01:45;;;;;;;0.47;0.30;;;9.10;75.00;;;;;;5096301;28;20028;-91
2021/05/20 05:04:10;;;;;;;0.30;0.20;;;9.20;74.40;;;;;;5094703;28;20050;-90
2021/05/20 05:06:36;;;;;;;0.50;0.10;;;9.30;74.10;;;;;;5093928;28;20443;-91
2021/05/20 05:09:02;;;;;;;0.52;0.20;;;9.40;73.80;;;;;;5094111;28;20471;-85
2021/05/20 05:11:27;;;;;;;0.30;0.30;;;9.40;73.70;;;;;;5094351;28;20031;-84
2021/05/20 05:13:53;;;;;;;0.77;0.35;;;9.50;73.50;;;;;;5097668;28;20028;-89
2021/05/20 05:16:18;;;;;;;0.38;0.20;;;9.50;73.50;;;;;;5097962;28;20115;-84
2021/05/20 05:18:44;;;;;;;0.63;0.30;;;9.60;73.80;;;;;;5097798;28;20024;-80
2021/05/20 05:21:10;;;;;;;0.30;0.30;;;9.70;73.40;;;;;;5098198;28;20102;-87
2021/05/20 05:23:35;;;;;;;0.55;0.30;;;9.80;72.30;;;;;;5096831;28;20020;-90
2021/05/20 05:26:01;;;;;;;0.20;0.20;;;9.80;71.30;;;;;;5098824;28;20032;-88
2021/05/20 05:28:26;;;;;;;0.70;0.25;;;9.80;71.10;;;;;;5098148;28;20020;-86
2021/05/20 05:30:52;;;;;;;0.77;0.40;;;9.90;71.30;;;;;;5098033;28;20027;-91
2021/05/20 05:33:21;;;;;;;1.85;0.50;;;9.90;71.60;;;;;;5098785;28;20039;-76
2021/05/20 05:35:47;;;;;;;2.05;0.20;;;10.10;71.00;;;;;;5099538;28;20341;-76
2021/05/20 05:38:14;;;;;;;0.40;0.35;;;10.20;69.80;;;;;;5102096;28;20035;-76
2021/05/20 05:40:39;;;;;;;0.70;0.30;;;10.20;68.30;;;;;;5100476;28;20044;-77
2021/05/20 05:43:05;;;;;;;0.25;0.20;;;10.30;67.60;;;;;;5096878;28;20392;-76
2021/05/20 05:45:30;;;;;;;1.30;0.43;;;10.40;67.40;;;;;;5095182;28;20209;-76
2021/05/20 05:47:56;;;;;;;0.52;0.43;;;10.50;67.30;;;;;;5095392;28;20028;-75
2021/05/20 05:50:22;;;;;;;1.55;0.50;;;10.60;67.80;;;;;;5096042;28;20024;-77
2021/05/20 05:52:47;;;;;;;0.40;0.25;;;10.70;68.30;;;;;;5095769;28;20042;-77
2021/05/20 05:55:13;;;;;;;0.70;0.30;;;10.90;66.30;;;;;;5096042;28;20020;-77
2021/05/20 05:57:39;;;;;;;0.90;0.20;;;10.90;65.40;;;;;;5095861;28;20030;-76
2021/05/20 06:00:06;;;;;;;3.92;1.30;;;10.90;65.60;;;;;;5095778;28;20030;-77
2021/05/20 06:02:32;;;;;;;1.48;0.60;;;10.80;66.20;;;;;;5095725;28;20034;-77
2021/05/20 06:04:58;;;;;;;0.75;0.30;;;10.60;66.90;;;;;;5094766;28;20024;-76
2021/05/20 06:07:24;;;;;;;1.15;0.50;;;10.40;67.10;;;;;;5095756;28;20031;-78
2021/05/20 06:09:50;;;;;;;1.60;0.70;;;10.30;68.40;;;;;;5095684;28;20024;-78
2021/05/20 06:12:15;;;;;;;1.23;0.88;;;10.10;69.70;;;;;;5095990;28;20036;-76
2021/05/20 06:14:41;;;;;;;2.05;0.30;;;10.00;69.60;;;;;;5095420;28;20477;-76
2021/05/20 06:17:08;;;;;;;2.65;0.22;;;9.90;70.30;;;;;;5095638;28;20027;-76
2021/05/20 06:19:34;;;;;;;0.38;0.20;;;9.90;70.70;;;;;;5095647;28;20028;-76
2021/05/20 06:22:17;;;;;;;0.30;0.20;;;10.10;70.00;;;;;;5095471;28;20021;-76
2021/05/20 06:24:43;;;;;;;1.60;0.43;;;10.10;69.90;;;;;;5094141;28;20048;-77
2021/05/20 06:27:09;;;;;;;0.40;0.30;;;10.10;69.70;;;;;;5095647;28;20409;-76
2021/05/20 06:29:37;;;;;;;0.80;0.28;;;10.20;70.50;;;;;;5095220;28;20154;-78
2021/05/20 06:32:04;;;;;;;0.28;0.10;;;10.10;69.60;;;;;;5095398;28;20103;-79
2021/05/20 06:34:31;;;;;;;3.25;0.40;;;10.10;69.50;;;;;;5094975;28;20565;-78
2021/05/20 06:37:02;;;;;;;0.43;0.30;;;10.30;68.80;;;;;;5093755;28;20020;-77
2021/05/20 06:39:29;;;;;;;2.15;0.50;;;10.30;68.90;;;;;;5095362;28;20024;-77
2021/05/20 06:41:55;;;;;;;1.05;0.90;;;10.30;68.80;;;;;;5094057;28;20042;-78
2021/05/20 06:44:22;;;;;;;3.35;1.90;;;10.10;69.20;;;;;;5094780;28;20441;-77
2021/05/20 06:46:48;;;;;;;1.80;1.00;;;10.00;70.30;;;;;;5095211;28;20055;-80
2021/05/20 06:49:14;;;;;;;6.00;0.60;;;10.00;71.10;;;;;;5095501;28;20052;-79
2021/05/20 06:51:40;;;;;;;1.42;0.70;;;10.10;70.00;;;;;;5099938;28;20442;-78
2021/05/20 06:54:06;;;;;;;0.40;0.30;;;10.10;70.30;;;;;;5099831;28;20043;-77
2021/05/20 06:56:32;;;;;;;0.55;0.30;;;10.30;69.80;;;;;;5103284;28;20484;-78
2021/05/20 07:01:46;;;;;;;1.98;0.60;;;10.50;68.50;;;;;;5095951;28;20023;-76
2021/05/20 07:04:13;;;;;;;0.30;0.30;;;10.40;67.80;;;;;;5093848;28;20446;-77
2021/05/20 07:06:39;;;;;;;0.60;0.40;;;10.30;69.10;;;;;;5094331;28;20024;-78
2021/05/20 07:09:05;;;;;;;0.85;0.40;;;10.20;69.50;;;;;;5094576;28;20492;-78
2021/05/20 07:11:31;;;;;;;2.80;0.40;;;10.10;70.40;;;;;;5094549;28;20063;-78
2021/05/20 07:13:57;;;;;;;2.60;0.70;;;10.10;70.60;;;;;;5094529;28;20021;-78
2021/05/20 07:16:22;;;;;;;5.82;0.93;;;10.30;70.80;;;;;;5094548;28;20392;-80
2021/05/20 07:18:48;;;;;;;3.70;1.13;;;10.40;69.60;;;;;;5094324;28;20020;-80
2021/05/20 07:21:14;;;;;;;4.95;1.70;;;10.50;69.60;;;;;;5094389;28;20452;-80
2021/05/20 07:23:39;;;;;;;1.25;0.80;;;10.40;70.50;;;;;;5094319;28;20020;-80
2021/05/20 07:26:05;;;;;;;1.35;0.80;;;10.50;70.70;;;;;;5094217;28;20036;-78
2021/05/20 07:28:31;;;;;;;2.83;0.85;;;10.40;70.50;;;;;;5094445;28;20024;-76
2021/05/20 07:30:57;;;;;;;3.80;1.45;;;10.50;70.50;;;;;;5094175;28;20038;-78
2021/05/20 07:33:24;;;;;;;2.17;0.77;;;10.40;70.50;;;;;;5093887;28;20118;-77
2021/05/20 07:35:50;;;;;;;0.75;0.60;;;10.30;71.20;;;;;;5093049;28;20329;-74
2021/05/20 07:38:15;;;;;;;0.98;0.63;;;10.50;71.20;;;;;;5093450;28;20080;-74
2021/05/20 07:40:41;;;;;;;0.57;0.57;;;10.70;70.10;;;;;;5093486;28;20465;-74
2021/05/20 07:43:07;;;;;;;3.38;1.63;;;10.80;69.50;;;;;;5093444;28;20435;-74
2021/05/20 07:45:33;;;;;;;2.10;0.60;;;11.00;68.80;;;;;;5096224;28;20056;-76
2021/05/20 07:47:59;;;;;;;0.93;0.70;;;10.90;69.60;;;;;;5092587;28;20385;-75
2021/05/20 07:50:25;;;;;;;1.83;1.05;;;10.90;69.10;;;;;;5093463;28;20034;-74
2021/05/20 07:52:51;;;;;;;2.90;1.10;;;10.90;69.10;;;;;;5093563;28;20027;-75
2021/05/20 07:55:17;;;;;;;1.05;0.75;;;10.70;69.60;;;;;;5095268;28;20022;-89
2021/05/20 07:57:43;;;;;;;0.60;0.60;;;10.90;68.50;;;;;;5093393;28;20034;-74
2021/05/20 08:00:12;;;;;;;1.48;0.73;;;10.90;68.80;;;;;;5091787;28;20021;-75
2021/05/20 08:02:50;;;;;;;2.25;0.77;;;11.00;66.80;;;;;;5093614;28;20449;-75
2021/05/20 08:05:25;;;;;;;0.90;0.70;;;11.40;65.20;;;;;;5093339;28;20491;-74
2021/05/20 08:08:05;;;;;;;1.30;0.60;;;11.50;63.50;;;;;;5093343;28;20061;-73
2021/05/20 08:13:11;;;;;;;2.20;0.60;;;11.80;64.40;;;;;;5093208;28;20025;-78
2021/05/20 08:15:37;;;;;;;0.70;0.70;;;12.30;66.30;;;;;;5093151;28;20047;-74
2021/05/20 08:18:03;;;;;;;1.60;0.90;;;12.40;64.20;;;;;;5093134;28;20024;-75
2021/05/20 08:20:28;;;;;;;1.10;0.70;;;12.30;65.20;;;;;;5093068;28;20461;-75
2021/05/20 08:22:54;;;;;;;1.60;0.60;;;12.50;64.20;;;;;;5093284;28;20024;-75
2021/05/20 08:25:20;;;;;;;4.80;1.00;;;12.30;62.50;;;;;;5093160;28;20058;-77
2021/05/20 08:27:45;;;;;;;0.80;0.80;;;12.20;64.20;;;;;;5101791;28;20024;-75
2021/05/20 08:30:12;;;;;;;2.25;0.70;;;12.00;64.90;;;;;;5099126;28;20102;-75
2021/05/20 08:32:38;;;;;;;2.45;0.60;;;12.20;64.90;;;;;;5092746;28;20822;-75
2021/05/20 08:35:05;;;;;;;3.45;0.60;;;12.00;65.60;;;;;;5092507;28;20032;-76
2021/05/20 08:37:31;;;;;;;5.60;0.82;;;11.80;66.40;;;;;;5092733;28;20403;-76
2021/05/20 08:39:57;;;;;;;0.90;0.70;;;11.80;67.20;;;;;;5092687;28;20039;-76
2021/05/20 08:42:22;;;;;;;7.53;0.85;;;11.70;67.40;;;;;;5092659;28;20027;-75
2021/05/20 08:44:48;;;;;;;2.40;1.50;;;12.00;67.30;;;;;;5092784;28;20160;-76
2021/05/20 08:47:13;;;;;;;1.23;0.85;;;12.20;65.50;;;;;;5095766;28;20500;-75
2021/05/20 08:49:39;;;;;;;2.53;0.98;;;12.10;65.20;;;;;;5095627;28;20077;-74
2021/05/20 08:52:05;;;;;;;1.35;0.90;;;12.20;63.40;;;;;;5096950;28;20024;-75
2021/05/20 08:54:30;;;;;;;1.58;0.90;;;12.20;64.00;;;;;;5096968;28;20028;-75
2021/05/20 08:56:56;;;;;;;2.78;1.00;;;12.20;63.30;;;;;;5096879;28;20024;-76
2021/05/20 08:59:23;;;;;;;3.28;1.35;;;12.20;64.50;;;;;;5096945;28;20028;-75
2021/05/20 09:01:51;;;;;;;2.22;0.80;;;12.50;62.50;;;;;;5096733;28;20464;-75
2021/05/20 09:04:17;;;;;;;1.02;0.93;;;12.70;60.80;;;;;;5096996;28;20028;-75
2021/05/20 09:06:47;;;;;;;1.02;0.93;;;13.00;58.60;;;;;;5096302;28;20054;-76
2021/05/20 09:09:22;;;;;;;1.17;0.68;;;13.30;58.00;;;;;;5096849;28;20027;-76
2021/05/20 09:11:50;;;;;;;1.00;0.65;;;13.30;56.60;;;;;;5096841;28;20016;-75
2021/05/20 09:14:40;;;;;;;2.53;0.70;;;13.60;56.80;;;;;;5096441;28;20138;-75
2021/05/20 09:17:32;;;;;;;2.50;0.77;;;13.70;56.80;;;;;;5096443;28;20023;-75
2021/05/20 09:20:00;;;;;;;1.73;1.00;;;13.30;57.30;;;;;;5094403;28;20565;-76
2021/05/20 09:22:27;;;;;;;1.85;0.68;;;12.90;56.10;;;;;;5096518;28;20415;-75
2021/05/20 09:24:59;;;;;;;1.92;1.00;;;12.80;55.50;;;;;;5096517;28;20020;-75
2021/05/20 09:27:37;;;;;;;5.93;1.35;;;12.70;56.40;;;;;;5096164;28;20020;-75
2021/05/20 09:30:19;;;;;;;2.15;0.98;;;12.90;57.10;;;;;;5096177;28;20115;-75
2021/05/20 09:32:55;;;;;;;2.85;0.93;;;13.20;56.70;;;;;;5096336;28;20046;-75
2021/05/20 09:35:24;;;;;;;1.15;0.55;;;13.40;56.00;;;;;;5096286;28;20032;-75
2021/05/20 09:37:53;;;;;;;4.85;0.80;;;13.80;55.30;;;;;;5096361;28;20068;-75
2021/05/20 09:40:25;;;;;;;2.05;0.60;;;14.10;54.50;;;;;;5096471;28;20020;-76
2021/05/20 09:42:51;;;;;;;2.63;0.77;;;14.10;51.30;;;;;;5096724;28;20028;-78
2021/05/20 09:45:25;;;;;;;1.55;0.80;;;14.30;51.00;;;;;;5095926;28;20047;-76
2021/05/20 09:47:52;;;;;;;1.20;0.73;;;14.70;50.90;;;;;;5095812;28;20077;-77
2021/05/20 09:50:22;;;;;;;2.47;0.65;;;14.00;51.30;;;;;;5095891;28;20057;-76
2021/05/20 09:52:50;;;;;;;1.38;0.52;;;13.80;51.50;;;;;;5095785;28;20012;-76
2021/05/20 09:55:18;;;;;;;4.03;0.55;;;13.80;50.70;;;;;;5094675;28;20388;-80
2021/05/20 09:57:44;;;;;;;1.02;0.68;;;13.70;48.30;;;;;;5095162;28;20020;-76
2021/05/20 10:00:12;;;;;;;1.48;0.80;;;13.40;48.10;;;;;;5096095;28;20194;-76
2021/05/20 10:02:39;;;;;;;0.60;0.50;;;13.50;48.30;;;;;;5095293;28;20391;-78
2021/05/20 10:05:31;;;;;;;0.47;0.43;;;13.60;48.10;;;;;;5093713;28;20028;-77
2021/05/20 10:07:58;;;;;;;0.95;0.35;;;13.90;47.80;;;;;;5095425;28;20024;-76
2021/05/20 10:10:25;;;;;;;0.98;0.40;;;14.20;47.00;;;;;;5095280;28;20042;-76
2021/05/20 10:12:51;;;;;;;0.32;0.20;;;14.60;45.70;;;;;;5094955;28;20074;-76
2021/05/20 10:15:19;;;;;;;1.48;0.50;;;14.70;44.60;;;;;;5095765;28;20020;-76
2021/05/20 10:17:46;;;;;;;0.65;0.40;;;14.70;43.00;;;;;;5094847;28;20103;-76
2021/05/20 10:20:15;;;;;;;1.55;0.40;;;14.80;42.60;;;;;;5095271;28;20036;-76
2021/05/20 10:22:42;;;;;;;0.73;0.40;;;14.90;43.40;;;;;;5095131;28;20016;-76
2021/05/20 10:25:08;;;;;;;0.85;0.50;;;14.40;44.70;;;;;;5095090;28;20451;-76
2021/05/20 10:27:39;;;;;;;0.95;0.40;;;14.00;46.20;;;;;;5095234;28;20115;-76
2021/05/20 10:30:08;;;;;;;0.73;0.50;;;14.00;46.00;;;;;;5094391;28;20051;-75
2021/05/20 10:32:34;;;;;;;1.88;0.88;;;14.00;48.70;;;;;;5096366;28;20031;-77
2021/05/20 10:35:04;;;;;;;0.70;0.60;;;13.90;51.60;;;;;;5095087;28;20032;-76
2021/05/20 10:37:41;;;;;;;1.77;0.80;;;13.60;53.30;;;;;;5095054;28;20016;-75
2021/05/20 10:40:10;;;;;;;1.52;0.70;;;13.50;54.00;;;;;;5095215;28;20024;-76
2021/05/20 10:42:44;;;;;;;2.40;0.50;;;13.80;53.70;;;;;;5094787;28;20021;-76
2021/05/20 10:45:19;;;;;;;0.65;0.60;;;13.90;52.10;;;;;;5093711;28;20414;-81
2021/05/20 10:48:18;;;;;;;0.77;0.40;;;14.20;49.90;;;;;;5095063;28;20036;-76
2021/05/20 10:50:58;;;;;;;1.15;0.68;;;14.80;48.00;;;;;;5071627;28;20077;-76
2021/05/20 10:53:47;;;;;;;0.60;0.47;;;15.20;46.30;;;;;;5093859;28;20028;-75
2021/05/20 10:56:15;;;;;;;0.40;0.40;;;15.50;44.90;;;;;;5094494;28;20020;-77
2021/05/20 10:58:47;;;;;;;0.50;0.50;;;15.30;44.50;;;;;;5094367;28;20150;-75
2021/05/20 11:01:24;;;;;;;0.70;0.50;;;15.00;45.00;;;;;;5094424;28;20472;-78
2021/05/20 11:03:50;;;;;;;3.58;0.52;;;14.60;46.40;;;;;;5094544;28;20101;-76
2021/05/20 11:06:18;;;;;;;0.30;0.30;;;14.20;46.60;;;;;;5094421;28;20097;-76
2021/05/20 11:08:46;;;;;;;0.80;0.47;;;14.10;47.70;;;;;;5093978;28;20030;-77
2021/05/20 11:11:30;;;;;;;2.17;0.90;;;14.00;47.40;;;;;;5093429;28;20035;-77
2021/05/20 11:13:57;;;;;;;0.57;0.50;;;14.00;47.90;;;;;;5094188;28;20389;-77
2021/05/20 11:16:35;;;;;;;0.63;0.40;;;14.10;46.70;;;;;;5094077;28;20024;-76
2021/05/20 11:22:03;;;;;;;0.50;0.40;;;14.90;46.00;;;;;;5094414;28;20031;-84
2021/05/20 11:24:33;;;;;;;0.70;0.35;;;14.80;46.70;;;;;;5093165;28;20027;-87
2021/05/20 11:27:01;;;;;;;3.88;2.83;;;14.60;47.20;;;;;;5094225;28;20017;-77
2021/05/20 11:29:37;;;;;;;2.97;1.00;;;14.00;47.90;;;;;;5094214;28;20530;-76
2021/05/20 11:37:37;;;;;;;0.75;0.50;;;13.50;56.30;;;;;;5093742;28;20040;-76
2021/05/20 11:40:06;;;;;;;2.72;0.40;;;13.10;56.90;;;;;;5093753;28;20059;-77
2021/05/20 11:42:33;;;;;;;1.40;0.55;;;12.70;58.90;;;;;;5093515;28;20481;-77
2021/05/20 11:45:00;;;;;;;3.97;0.98;;;12.60;58.90;;;;;;5092209;28;20131;-76
2021/05/20 11:47:25;;;;;;;0.65;0.40;;;12.40;58.40;;;;;;5093499;28;20060;-76
2021/05/20 11:49:51;;;;;;;1.75;0.50;;;12.10;58.60;;;;;;5093672;28;20055;-76
2021/05/20 11:52:18;;;;;;;0.95;0.50;;;12.10;59.30;;;;;;5093804;28;20434;-77
2021/05/20 11:54:46;;;;;;;0.88;0.30;;;12.30;58.50;;;;;;5093954;28;20131;-83
2021/05/20 11:57:13;;;;;;;1.77;0.55;;;12.40;58.20;;;;;;5095203;28;20024;-83
2021/05/20 11:59:42;;;;;;;0.70;0.50;;;12.50;56.30;;;;;;5098158;28;20058;-82
2021/05/20 12:02:11;;;;;;;2.28;0.60;;;12.80;56.10;;;;;;5096243;28;20096;-83
2021/05/20 12:04:37;;;;;;;1.40;0.98;;;13.00;55.80;;;;;;5093959;28;20073;-84
2021/05/20 12:07:03;;;;;;;0.70;0.70;;;13.20;54.50;;;;;;5094128;28;20098;-85
2021/05/20 12:09:29;;;;;;;0.47;0.47;;;13.30;53.00;;;;;;5094301;28;20045;-80
2021/05/20 12:11:54;;;;;;;0.40;0.40;;;13.50;52.50;;;;;;5093936;28;20536;-77
2021/05/20 12:14:23;;;;;;;0.95;0.70;;;14.00;52.20;;;;;;5094836;28;20036;-89
2021/05/20 12:17:08;;;;;;;0.77;0.30;;;14.40;50.80;;;;;;5095057;28;20466;-87
2021/05/20 12:19:45;;;;;;;1.25;0.45;;;14.70;48.30;;;;;;5094879;28;20032;-90
2021/05/20 12:22:28;;;;;;;1.08;0.40;;;14.80;46.70;;;;;;5094162;28;20103;-88
2021/05/20 12:25:03;;;;;;;0.40;0.40;;;14.80;46.40;;;;;;5092948;28;20496;-88
2021/05/20 12:27:38;;;;;;;1.95;0.40;;;14.90;45.80;;;;;;5094893;28;20215;-92
2021/05/20 12:30:07;;;;;;;1.08;0.40;;;15.20;44.70;;;;;;5094484;28;20024;-91
2021/05/20 12:32:41;;;;;;;2.78;0.40;;;15.30;44.70;;;;;;5094191;28;20016;-92
2021/05/20 12:35:29;;;;;;;0.73;0.60;;;15.30;43.00;;;;;;5094522;28;20028;-90
2021/05/20 12:38:07;;;;;;;1.35;0.50;;;15.60;41.40;;;;;;5096552;28;20477;-91
2021/05/20 12:40:54;;;;;;;1.98;0.40;;;15.90;41.40;;;;;;5095767;28;20024;-89
2021/05/20 12:43:21;;;;;;;0.32;0.32;;;16.00;41.90;;;;;;5094730;28;20032;-88
2021/05/20 12:46:07;;;;;;;0.20;0.20;;;16.10;42.40;;;;;;5094717;28;20050;-91
2021/05/20 12:48:41;;;;;;;2.08;0.52;;;16.30;42.60;;;;;;5095467;28;20384;-89
2021/05/20 12:51:18;;;;;;;3.83;0.30;;;16.40;42.80;;;;;;5095642;28;20047;-89
2021/05/20 12:53:54;;;;;;;2.05;1.85;;;16.40;42.50;;;;;;5099476;28;20032;-85
2021/05/20 12:59:03;;;;;;;0.30;0.30;;;16.40;41.30;;;;;;5094980;28;20031;-88
2021/05/20 13:01:37;;;;;;;0.20;0.20;;;16.60;41.90;;;;;;5094749;28;20039;-92
2021/05/20 13:04:08;;;;;;;0.20;0.20;;;16.60;41.30;;;;;;5095474;28;20150;-90
2021/05/20 13:06:34;;;;;;;0.38;0.25;;;16.40;42.10;;;;;;5100944;28;20008;-79
2021/05/20 13:09:09;;;;;;;0.65;0.30;;;16.40;42.70;;;;;;5105899;28;20024;-89
2021/05/20 13:11:41;;;;;;;0.47;0.28;;;16.60;43.30;;;;;;5099849;28;20020;-90